Time;durP1;ratioP1;P1;durP2;ratioP2;P2;SDS_P1;SDS_P2;PMS_P1;PMS_P2;Temp;Humidity;BMP_temperature;BMP_pressure;BME280_temperature;BME280_humidity;BME280_pressure;Samples;Min_cycle;Max_cycle;Signal;HPM_P1;HPM_P2
2021/07/08 00:02:06;;;;;;;0.00;0.00;;;;;;;24.81;59.24;99163.38;5093573;28;20035;-78
2021/07/08 00:04:32;;;;;;;0.00;0.00;;;;;;;24.77;59.44;99157.06;5092885;28;20047;-78
2021/07/08 00:06:57;;;;;;;0.00;0.00;;;;;;;24.79;59.35;99157.47;5074344;28;20024;-78
2021/07/08 00:09:23;;;;;;;0.00;0.00;;;;;;;24.78;59.50;99159.44;5075261;28;20031;-78
2021/07/08 00:11:48;;;;;;;0.10;0.10;;;;;;;24.72;59.38;99160.13;5092923;28;20080;-78
2021/07/08 00:14:13;;;;;;;0.00;0.00;;;;;;;24.72;59.49;99166.38;5092019;28;20032;-78
2021/07/08 00:16:39;;;;;;;0.00;0.00;;;;;;;24.70;59.37;99165.19;5093115;28;20020;-77
2021/07/08 00:19:07;;;;;;;0.10;0.10;;;;;;;24.66;59.45;99167.84;5092721;28;20039;-78
2021/07/08 00:21:32;;;;;;;0.00;0.00;;;;;;;24.61;59.67;99165.41;5092371;28;20028;-78
2021/07/08 00:23:58;;;;;;;0.00;0.00;;;;;;;24.54;59.70;99166.06;5092842;28;20028;-77
2021/07/08 00:26:23;;;;;;;0.00;0.00;;;;;;;24.49;60.08;99168.34;5074920;28;20051;-78
2021/07/08 00:28:49;;;;;;;0.00;0.00;;;;;;;24.42;60.29;99167.06;5091541;28;20020;-78
2021/07/08 00:31:15;;;;;;;0.08;0.08;;;;;;;24.38;60.35;99163.50;5092821;28;20523;-77
2021/07/08 00:33:40;;;;;;;0.00;0.00;;;;;;;24.29;60.48;99161.03;5092791;28;20024;-77
2021/07/08 00:36:06;;;;;;;0.00;0.00;;;;;;;24.28;60.64;99159.44;5092047;28;20028;-79
2021/07/08 00:38:32;;;;;;;0.00;0.00;;;;;;;24.23;60.49;99154.28;5071480;28;20107;-78
2021/07/08 00:40:58;;;;;;;0.00;0.00;;;;;;;24.23;60.39;99170.69;5054725;28;20028;-77
2021/07/08 00:43:28;;;;;;;0.00;0.00;;;;;;;24.23;60.73;99175.34;5072438;28;20044;-76
2021/07/08 00:45:54;;;;;;;0.00;0.00;;;;;;;24.20;60.49;99165.16;5072348;28;20032;-77
2021/07/08 00:48:19;;;;;;;0.00;0.00;;;;;;;24.19;60.49;99169.81;5054576;28;20105;-78
2021/07/08 00:50:48;;;;;;;0.00;0.00;;;;;;;24.16;60.58;99165.09;5063182;28;20094;-78
2021/07/08 00:53:22;;;;;;;0.00;0.00;;;;;;;24.16;60.36;99164.28;5091119;28;20123;-76
2021/07/08 00:55:55;;;;;;;0.00;0.00;;;;;;;24.12;60.25;99165.03;5091832;28;20051;-76
2021/07/08 00:58:20;;;;;;;0.00;0.00;;;;;;;24.10;60.43;99167.31;5092571;28;20028;-80
2021/07/08 01:00:46;;;;;;;0.00;0.00;;;;;;;24.06;60.28;99177.41;5073639;28;20112;-78
2021/07/08 01:03:13;;;;;;;0.00;0.00;;;;;;;24.05;60.88;99175.84;5092788;28;20031;-78
2021/07/08 01:05:45;;;;;;;0.00;0.00;;;;;;;24.04;61.03;99173.47;5091548;28;20032;-78
2021/07/08 01:08:12;;;;;;;0.00;0.00;;;;;;;24.00;61.13;99175.34;5092396;28;20035;-78
2021/07/08 01:10:39;;;;;;;0.00;0.00;;;;;;;23.95;61.22;99160.06;5090867;28;20024;-78
2021/07/08 01:13:05;;;;;;;0.10;0.10;;;;;;;23.97;61.22;99168.66;5074119;28;20457;-76
2021/07/08 01:15:32;;;;;;;0.00;0.00;;;;;;;23.95;61.23;99173.72;5092405;28;20062;-78
2021/07/08 01:17:57;;;;;;;0.00;0.00;;;;;;;23.94;61.41;99170.19;5091943;28;20487;-78
2021/07/08 01:20:28;;;;;;;0.00;0.00;;;;;;;23.97;61.15;99176.84;5090925;28;20155;-79
2021/07/08 01:23:00;;;;;;;0.00;0.00;;;;;;;23.98;61.38;99176.47;5091990;28;20028;-79
2021/07/08 01:25:38;;;;;;;0.00;0.00;;;;;;;23.95;61.28;99170.97;5091989;28;20056;-78
2021/07/08 01:28:06;;;;;;;0.00;0.00;;;;;;;23.93;61.19;99171.31;5092160;28;20040;-82
2021/07/08 01:30:32;;;;;;;12.60;0.43;;;;;;;23.94;61.18;99169.41;5090561;28;20028;-80
2021/07/08 01:32:59;;;;;;;0.00;0.00;;;;;;;23.94;61.30;99172.91;5091495;28;20020;-81
2021/07/08 01:35:25;;;;;;;0.00;0.00;;;;;;;23.92;61.19;99168.94;5073488;28;20082;-81
2021/07/08 01:37:51;;;;;;;0.00;0.00;;;;;;;23.92;61.44;99174.41;5073669;28;20020;-81
2021/07/08 01:40:19;;;;;;;0.00;0.00;;;;;;;23.89;61.34;99175.91;5090412;28;20372;-83
2021/07/08 01:42:45;;;;;;;0.00;0.00;;;;;;;23.88;61.45;99179.78;5073322;28;20020;-83
2021/07/08 01:45:14;;;;;;;0.00;0.00;;;;;;;23.88;61.25;99184.47;5073551;28;20028;-83
2021/07/08 01:47:39;;;;;;;0.00;0.00;;;;;;;23.85;61.44;99180.50;5073027;28;20043;-85
2021/07/08 01:50:06;;;;;;;0.00;0.00;;;;;;;23.83;61.80;99185.56;5073614;28;20024;-89
2021/07/08 01:52:32;;;;;;;0.00;0.00;;;;;;;23.80;61.99;99176.16;5055363;28;20098;-85
2021/07/08 01:54:57;;;;;;;0.08;0.08;;;;;;;23.79;62.70;99176.50;5073394;28;20469;-86
2021/07/08 01:57:23;;;;;;;0.10;0.10;;;;;;;23.80;62.57;99180.81;5073779;28;20020;-82
2021/07/08 01:59:48;;;;;;;0.00;0.00;;;;;;;23.79;62.49;99181.94;5073549;28;20035;-85
2021/07/08 02:02:13;;;;;;;0.00;0.00;;;;;;;23.78;62.47;99181.19;5075187;28;20395;-82
2021/07/08 02:04:39;;;;;;;0.00;0.00;;;;;;;23.78;62.48;99183.91;5078361;28;21409;-81
2021/07/08 02:07:04;;;;;;;0.00;0.00;;;;;;;23.78;62.29;99177.66;5090089;28;20459;-82
2021/07/08 02:09:30;;;;;;;0.00;0.00;;;;;;;23.77;62.26;99178.81;5089924;28;20030;-82
2021/07/08 02:11:58;;;;;;;0.10;0.10;;;;;;;23.78;62.25;99180.41;5089707;28;20028;-80
2021/07/08 02:14:24;;;;;;;0.00;0.00;;;;;;;23.76;62.33;99182.69;5072949;28;20063;-81
2021/07/08 02:16:49;;;;;;;0.00;0.00;;;;;;;23.73;62.56;99175.22;5089835;28;20048;-78
2021/07/08 02:19:15;;;;;;;0.00;0.00;;;;;;;23.75;62.45;99175.66;5089689;28;20123;-78
2021/07/08 02:21:40;;;;;;;0.00;0.00;;;;;;;23.73;62.55;99180.66;5089586;28;20028;-78
2021/07/08 02:24:06;;;;;;;0.00;0.00;;;;;;;23.73;62.51;99181.47;5089417;28;20039;-79
2021/07/08 02:26:31;;;;;;;0.00;0.00;;;;;;;23.71;62.56;99183.78;5089674;28;20067;-84
2021/07/08 02:28:57;;;;;;;0.00;0.00;;;;;;;23.72;62.69;99179.91;5092146;28;20474;-81
2021/07/08 02:31:22;;;;;;;0.00;0.00;;;;;;;23.71;62.97;99172.06;5077141;28;20506;-82
2021/07/08 02:33:48;;;;;;;0.00;0.00;;;;;;;23.71;63.14;99181.03;5076076;28;20483;-79
2021/07/08 02:36:13;;;;;;;0.10;0.10;;;;;;;23.71;63.22;99181.03;5093504;28;20089;-83
2021/07/08 02:38:38;;;;;;;0.00;0.00;;;;;;;23.67;63.31;99172.00;5076438;28;20093;-82
2021/07/08 02:41:05;;;;;;;0.00;0.00;;;;;;;23.65;63.35;99177.03;5077018;28;20032;-81
2021/07/08 02:43:30;;;;;;;0.08;0.08;;;;;;;23.63;63.34;99179.31;5076798;28;20035;-83
2021/07/08 02:45:56;;;;;;;0.00;0.00;;;;;;;23.63;63.56;99184.78;5076645;28;20032;-81
2021/07/08 02:48:22;;;;;;;0.00;0.00;;;;;;;23.60;63.36;99186.28;5076799;28;20078;-79
2021/07/08 02:50:51;;;;;;;0.00;0.00;;;;;;;23.58;63.29;99196.00;5092792;28;20487;-80
2021/07/08 02:53:17;;;;;;;0.00;0.00;;;;;;;23.55;63.36;99191.28;5076833;28;20182;-79
2021/07/08 02:55:42;;;;;;;0.00;0.00;;;;;;;23.52;63.32;99190.03;5076525;28;20060;-79
2021/07/08 02:58:08;;;;;;;0.00;0.00;;;;;;;23.50;63.73;99192.34;5094889;28;20110;-79
2021/07/08 03:00:33;;;;;;;0.00;0.00;;;;;;;23.49;63.80;99193.50;5076614;28;20028;-79
2021/07/08 03:02:59;;;;;;;0.00;0.00;;;;;;;23.50;63.79;99193.13;5076194;28;20036;-78
2021/07/08 03:05:25;;;;;;;0.32;0.32;;;;;;;23.57;63.97;99191.69;5094383;28;20119;-79
2021/07/08 03:07:51;;;;;;;0.05;0.05;;;;;;;23.65;63.73;99196.91;5075995;28;20471;-80
2021/07/08 03:10:20;;;;;;;0.00;0.00;;;;;;;23.74;63.79;99185.78;5076055;28;20063;-78
2021/07/08 03:12:46;;;;;;;0.10;0.10;;;;;;;23.92;63.57;99191.59;5076012;28;20411;-77
2021/07/08 03:15:12;;;;;;;0.43;0.43;;;;;;;24.11;63.26;99198.19;5094103;28;20031;-78
2021/07/08 03:17:39;;;;;;;0.00;0.00;;;;;;;24.33;62.71;99201.25;5094488;28;20112;-80
2021/07/08 03:20:07;;;;;;;0.00;0.00;;;;;;;24.58;61.95;99201.69;5092360;28;20032;-80
2021/07/08 03:22:33;;;;;;;0.00;0.00;;;;;;;24.84;61.08;99198.22;5076089;28;20593;-80
2021/07/08 03:24:58;;;;;;;0.00;0.00;;;;;;;25.13;60.27;99204.06;5093578;28;20111;-80
2021/07/08 03:27:24;;;;;;;0.10;0.10;;;;;;;25.43;59.33;99206.03;5093934;28;20038;-79
2021/07/08 03:29:49;;;;;;;0.00;0.00;;;;;;;25.78;58.50;99198.59;5075142;28;20406;-80
2021/07/08 03:32:15;;;;;;;0.10;0.10;;;;;;;26.10;57.43;99212.66;5093593;28;20086;-80
2021/07/08 03:34:41;;;;;;;0.00;0.00;;;;;;;26.41;56.31;99212.53;5092819;28;20491;-81
2021/07/08 03:37:06;;;;;;;0.00;0.00;;;;;;;26.71;55.67;99200.59;5092722;28;20550;-81
2021/07/08 03:39:32;;;;;;;0.00;0.00;;;;;;;27.05;54.78;99206.75;5092431;28;20111;-82
2021/07/08 03:41:57;;;;;;;0.00;0.00;;;;;;;27.37;53.87;99206.09;5092199;28;20491;-82
2021/07/08 03:44:23;;;;;;;0.00;0.00;;;;;;;27.70;52.85;99203.50;5075619;28;20020;-83
2021/07/08 03:46:48;;;;;;;0.00;0.00;;;;;;;28.04;51.70;99214.97;5074694;28;20028;-81
2021/07/08 03:49:15;;;;;;;0.00;0.00;;;;;;;28.36;51.12;99210.69;5093801;28;20486;-79
2021/07/08 03:51:40;;;;;;;0.00;0.00;;;;;;;28.69;50.08;99217.00;5092009;28;20032;-79
2021/07/08 03:54:06;;;;;;;0.00;0.00;;;;;;;29.00;49.42;99220.09;5075026;28;20034;-80
2021/07/08 03:56:31;;;;;;;0.00;0.00;;;;;;;29.36;48.43;99225.53;5075186;28;20561;-80
2021/07/08 03:58:57;;;;;;;0.00;0.00;;;;;;;29.69;47.46;99226.16;5075082;28;20055;-81
2021/07/08 04:01:22;;;;;;;0.00;0.00;;;;;;;30.01;47.08;99216.94;5093571;28;20027;-80
2021/07/08 04:03:48;;;;;;;0.00;0.00;;;;;;;30.32;46.13;99217.09;5074947;28;20068;-82
2021/07/08 04:06:13;;;;;;;0.00;0.00;;;;;;;30.67;45.70;99212.50;5075258;28;20027;-81
2021/07/08 04:08:39;;;;;;;0.00;0.00;;;;;;;31.02;45.15;99218.06;5075194;28;20380;-83
2021/07/08 04:11:04;;;;;;;0.00;0.00;;;;;;;31.36;44.33;99226.38;5074815;28;20040;-83
2021/07/08 04:13:30;;;;;;;0.00;0.00;;;;;;;31.64;43.45;99221.69;5075040;28;20127;-83
2021/07/08 04:15:55;;;;;;;0.00;0.00;;;;;;;31.94;42.99;99220.13;5074794;28;20031;-84
2021/07/08 04:18:21;;;;;;;0.10;0.10;;;;;;;32.21;42.30;99222.09;5093230;28;20101;-84
2021/07/08 04:20:47;;;;;;;0.00;0.00;;;;;;;32.55;42.04;99221.16;5091730;28;20032;-84
2021/07/08 04:23:14;;;;;;;0.00;0.00;;;;;;;32.82;41.11;99229.41;5074819;28;20055;-84
2021/07/08 04:25:40;;;;;;;0.00;0.00;;;;;;;33.09;40.99;99227.72;5074634;28;20075;-84
2021/07/08 04:28:07;;;;;;;0.03;0.03;;;;;;;33.35;40.47;99226.06;5074571;28;20564;-84
2021/07/08 04:30:34;;;;;;;0.00;0.00;;;;;;;33.61;39.94;99223.53;5074729;28;20024;-85
2021/07/08 04:32:59;;;;;;;0.00;0.00;;;;;;;33.75;39.82;99220.47;5074466;28;20036;-85
2021/07/08 04:35:46;;;;;;;0.10;0.10;;;;;;;33.99;39.65;99220.34;5074469;28;20039;-82
2021/07/08 04:38:12;;;;;;;0.00;0.00;;;;;;;34.29;39.15;99235.09;5091889;28;20110;-82
2021/07/08 04:40:39;;;;;;;0.00;0.00;;;;;;;34.56;38.92;99234.03;5092926;28;20032;-83
2021/07/08 04:43:06;;;;;;;0.00;0.00;;;;;;;34.77;38.41;99227.94;5092397;28;20154;-82
2021/07/08 04:45:32;;;;;;;0.00;0.00;;;;;;;35.00;38.47;99239.28;5092668;28;20028;-82
2021/07/08 04:47:58;;;;;;;0.10;0.10;;;;;;;34.91;38.30;99237.94;5073801;28;20032;-81
2021/07/08 04:50:24;;;;;;;0.10;0.10;;;;;;;34.90;38.19;99246.69;5092742;28;20026;-83
2021/07/08 04:52:51;;;;;;;1.13;0.73;;;;;;;34.79;38.41;99233.06;5091633;28;20031;-83
2021/07/08 04:55:19;;;;;;;0.10;0.10;;;;;;;34.57;39.02;99241.16;5092675;28;20059;-82
2021/07/08 04:57:48;;;;;;;0.10;0.10;;;;;;;34.26;39.16;99239.50;5074310;28;20020;-84
2021/07/08 05:00:15;;;;;;;0.00;0.00;;;;;;;34.16;39.65;99251.66;5074217;28;20471;-80
2021/07/08 05:02:42;;;;;;;0.00;0.00;;;;;;;34.10;39.63;99245.06;5092507;28;20404;-80
2021/07/08 05:05:09;;;;;;;0.00;0.00;;;;;;;34.12;39.71;99243.41;5092077;28;20486;-81
2021/07/08 05:07:36;;;;;;;0.00;0.00;;;;;;;34.24;39.28;99244.72;5073838;28;20067;-82
2021/07/08 05:10:03;;;;;;;0.10;0.10;;;;;;;34.28;38.87;99247.41;5073723;28;20028;-80
2021/07/08 05:12:29;;;;;;;;;;;;;;;34.34;38.40;99247.66;5092341;28;20344;-82
2021/07/08 05:14:54;;;;;;;0.10;0.10;;;;;;;34.36;38.83;99248.81;5073788;28;19950;-81
2021/07/08 05:17:20;;;;;;;0.15;0.15;;;;;;;34.37;38.68;99249.59;5073683;28;20038;-83
2021/07/08 05:19:45;;;;;;;0.28;0.28;;;;;;;34.52;38.16;99252.78;5073928;28;20093;-78
2021/07/08 05:22:11;;;;;;;0.00;0.00;;;;;;;34.56;38.33;99256.25;5091729;28;20063;-78
2021/07/08 05:24:39;;;;;;;0.10;0.10;;;;;;;34.77;38.20;99261.25;5091989;28;20030;-78
2021/07/08 05:27:04;;;;;;;0.10;0.10;;;;;;;34.96;37.72;99256.03;5073268;28;20048;-78
2021/07/08 05:29:30;;;;;;;0.10;0.10;;;;;;;34.97;36.96;99256.84;5092048;28;20043;-79
2021/07/08 05:31:55;;;;;;;0.05;0.05;;;;;;;34.92;36.96;99258.16;5068485;28;20067;-83
2021/07/08 05:34:21;;;;;;;0.10;0.10;;;;;;;34.67;37.07;99258.75;5090265;28;20053;-80
2021/07/08 05:36:46;;;;;;;0.30;0.30;;;;;;;34.56;36.99;99259.81;5090404;28;20452;-77
2021/07/08 05:39:12;;;;;;;0.00;0.00;;;;;;;34.56;38.16;99262.59;5091215;28;20020;-76
2021/07/08 05:41:37;;;;;;;0.05;0.05;;;;;;;34.71;38.09;99263.00;5091225;28;20059;-76
2021/07/08 05:44:03;;;;;;;0.10;0.10;;;;;;;34.77;37.41;99269.59;5091266;28;20154;-76
2021/07/08 05:46:28;;;;;;;0.15;0.15;;;;;;;34.74;37.94;99269.69;5091235;28;20423;-85
2021/07/08 05:48:54;;;;;;;0.17;0.17;;;;;;;34.69;37.94;99271.00;5089767;28;20047;-81
2021/07/08 05:51:19;;;;;;;0.25;0.25;;;;;;;34.63;37.46;99273.53;5091310;28;20027;-81
2021/07/08 05:53:45;;;;;;;0.10;0.10;;;;;;;34.66;37.63;99273.88;5089976;28;20689;-85
2021/07/08 05:56:10;;;;;;;0.55;0.55;;;;;;;34.47;37.52;99276.31;5090974;28;20541;-82
2021/07/08 05:58:36;;;;;;;0.20;0.20;;;;;;;34.40;37.73;99282.03;5069994;28;20040;-77
2021/07/08 06:01:01;;;;;;;0.65;0.30;;;;;;;34.25;37.43;99276.03;5080202;28;20036;-77
2021/07/08 06:03:27;;;;;;;3.53;0.20;;;;;;;34.24;37.72;99280.00;5091185;28;20709;-75
2021/07/08 06:05:52;;;;;;;0.30;0.30;;;;;;;34.04;38.29;99283.63;5099089;28;20441;-76
2021/07/08 06:08:18;;;;;;;0.22;0.22;;;;;;;34.18;38.09;99290.06;5111338;28;20106;-76
2021/07/08 06:10:44;;;;;;;3.53;0.73;;;;;;;34.09;38.29;99280.31;5111449;28;20027;-78
2021/07/08 06:13:12;;;;;;;0.20;0.20;;;;;;;34.08;38.62;99284.34;5109834;28;20062;-76
2021/07/08 06:15:40;;;;;;;0.30;0.30;;;;;;;34.13;38.14;99286.59;5105760;28;20566;-76
2021/07/08 06:18:05;;;;;;;0.20;0.20;;;;;;;34.32;38.09;99284.19;5090438;28;20043;-78
2021/07/08 06:20:31;;;;;;;0.13;0.13;;;;;;;34.54;37.99;99290.00;5089819;28;20024;-79
2021/07/08 06:22:57;;;;;;;0.00;0.00;;;;;;;34.77;37.78;99300.16;5087752;28;20517;-76
2021/07/08 06:25:23;;;;;;;0.10;0.10;;;;;;;34.76;37.06;99293.03;5080202;28;20036;-75
2021/07/08 06:27:49;;;;;;;0.55;0.55;;;;;;;34.77;36.61;99291.81;5090266;28;20035;-74
2021/07/08 06:30:15;;;;;;;0.35;0.35;;;;;;;34.76;36.67;99297.81;5089087;28;20094;-76
2021/07/08 06:32:41;;;;;;;0.20;0.20;;;;;;;34.69;37.26;99295.22;5090717;28;20479;-75
2021/07/08 06:35:08;;;;;;;0.47;0.10;;;;;;;34.74;37.04;99287.16;5090227;28;20028;-80
2021/07/08 06:37:34;;;;;;;;;;;;;;;34.64;36.80;99288.19;5073005;28;20051;-82
2021/07/08 06:39:59;;;;;;;0.40;0.30;;;;;;;34.40;37.75;99282.81;5072568;28;19962;-76
2021/07/08 06:42:25;;;;;;;1.25;0.20;;;;;;;34.21;35.71;99295.53;5090356;28;20353;-81
2021/07/08 06:44:50;;;;;;;0.30;0.08;;;;;;;34.09;37.21;99299.75;5072048;28;20040;-77
2021/07/08 06:47:18;;;;;;;1.02;0.93;;;;;;;33.87;37.68;99305.00;5090282;28;20028;-79
2021/07/08 06:49:44;;;;;;;0.60;0.60;;;;;;;33.52;36.03;99298.94;5072543;28;20039;-79
2021/07/08 06:52:11;;;;;;;0.20;0.20;;;;;;;33.35;38.62;99301.66;5090529;28;20054;-78
2021/07/08 06:54:36;;;;;;;0.10;0.10;;;;;;;33.14;38.51;99297.28;5090770;28;20258;-83
2021/07/08 06:57:02;;;;;;;0.20;0.20;;;;;;;32.95;38.57;99301.59;5071427;28;20028;-83
2021/07/08 06:59:27;;;;;;;0.20;0.20;;;;;;;32.73;39.13;99295.59;5072577;28;20028;-79
2021/07/08 07:01:53;;;;;;;0.10;0.10;;;;;;;32.57;39.02;99296.28;5071866;28;20032;-81
2021/07/08 07:04:18;;;;;;;0.10;0.10;;;;;;;32.41;39.28;99294.91;5072340;28;20043;-81
2021/07/08 07:06:44;;;;;;;0.38;0.38;;;;;;;32.23;39.51;99294.41;5072038;28;20551;-81
2021/07/08 07:09:09;;;;;;;0.30;0.30;;;;;;;32.04;38.76;99293.06;5071941;28;20028;-81
2021/07/08 07:11:35;;;;;;;0.10;0.10;;;;;;;31.93;40.02;99290.44;5089355;28;20039;-80
2021/07/08 07:14:00;;;;;;;0.20;0.20;;;;;;;31.88;40.68;99291.69;5072153;28;20024;-80
2021/07/08 07:16:26;;;;;;;0.43;0.28;;;;;;;31.69;38.75;99286.81;5075882;28;20027;-81
2021/07/08 07:18:51;;;;;;;0.38;0.30;;;;;;;31.60;39.63;99301.09;5076024;28;20077;-81
2021/07/08 07:21:17;;;;;;;4.95;1.25;;;;;;;31.50;40.39;99302.03;5075769;28;20028;-81
2021/07/08 07:23:42;;;;;;;0.13;0.13;;;;;;;31.39;40.26;99294.63;5076291;28;20391;-81
2021/07/08 07:26:08;;;;;;;0.60;0.60;;;;;;;31.31;40.40;99301.44;5092554;28;20494;-83
2021/07/08 07:28:34;;;;;;;0.52;0.47;;;;;;;31.28;40.92;99305.03;5075597;28;20024;-81
2021/07/08 07:31:00;;;;;;;0.38;0.38;;;;;;;31.26;41.00;99299.13;5075781;28;20475;-83
2021/07/08 07:33:25;;;;;;;0.68;0.68;;;;;;;31.20;41.44;99303.53;5075510;28;22026;-81
2021/07/08 07:35:51;;;;;;;0.55;0.55;;;;;;;31.09;41.34;99293.38;5075784;28;20177;-81
2021/07/08 07:38:18;;;;;;;0.28;0.28;;;;;;;31.03;41.26;99303.28;5075465;28;20032;-81
2021/07/08 07:40:43;;;;;;;1.38;1.27;;;;;;;30.90;41.14;99299.47;5075786;28;20020;-81
2021/07/08 07:43:10;;;;;;;0.90;0.65;;;;;;;30.79;41.54;99303.06;5075305;28;20034;-82
2021/07/08 07:45:36;;;;;;;0.33;0.33;;;;;;;30.68;41.62;99307.16;5092370;28;20113;-81
2021/07/08 07:48:01;;;;;;;0.00;0.00;;;;;;;30.58;42.00;99294.97;5092096;28;20032;-81
2021/07/08 07:50:31;;;;;;;0.28;0.28;;;;;;;30.59;42.70;99289.06;5075470;28;20036;-81
2021/07/08 07:52:56;;;;;;;0.10;0.10;;;;;;;30.55;42.76;99293.81;5075334;28;20032;-81
2021/07/08 07:55:27;;;;;;;1.52;0.68;;;;;;;30.58;42.30;99292.22;5075104;28;20054;-81
2021/07/08 07:57:56;;;;;;;0.52;0.52;;;;;;;30.55;42.28;99293.81;5108969;28;20086;-81
2021/07/08 08:00:22;;;;;;;0.22;0.22;;;;;;;30.47;41.80;99289.53;5109063;28;20030;-82
2021/07/08 08:02:47;;;;;;;0.20;0.20;;;;;;;30.44;42.29;99285.56;5092019;28;20023;-81
2021/07/08 08:10:26;;;;;;;0.47;0.47;;;;;;;30.31;43.23;99288.06;5093454;28;20030;-79
2021/07/08 08:12:51;;;;;;;0.50;0.50;;;;;;;30.33;42.27;99282.13;5091936;28;20024;-78
2021/07/08 08:15:18;;;;;;;0.20;0.20;;;;;;;30.34;42.18;99286.44;5091573;28;20090;-81
2021/07/08 08:17:45;;;;;;;0.47;0.47;;;;;;;30.37;42.98;99280.13;5091752;28;20035;-81
2021/07/08 08:20:11;;;;;;;0.65;0.65;;;;;;;30.48;43.46;99286.34;5091208;28;20044;-80
2021/07/08 08:22:38;;;;;;;0.10;0.10;;;;;;;30.54;42.49;99283.97;5108619;28;20387;-79
2021/07/08 08:25:05;;;;;;;0.40;0.40;;;;;;;30.55;42.48;99295.78;5091142;28;20495;-80
2021/07/08 08:27:30;;;;;;;0.80;0.68;;;;;;;30.48;42.33;99280.03;5107584;28;20054;-78
2021/07/08 08:29:56;;;;;;;0.10;0.10;;;;;;;30.52;42.48;99289.13;5091442;28;20119;-79
2021/07/08 08:32:21;;;;;;;0.25;0.25;;;;;;;30.62;43.29;99273.66;5091248;28;20055;-79
2021/07/08 08:34:47;;;;;;;0.17;0.17;;;;;;;30.71;43.66;99276.72;5074297;28;20073;-78
2021/07/08 08:37:12;;;;;;;0.22;0.22;;;;;;;30.84;42.84;99276.25;5074326;28;20036;-80
2021/07/08 08:39:38;;;;;;;0.40;0.40;;;;;;;30.85;42.66;99280.53;5090966;28;20040;-80
2021/07/08 08:42:09;;;;;;;0.32;0.32;;;;;;;30.95;43.05;99274.16;5074090;28;20024;-79
2021/07/08 08:44:36;;;;;;;0.10;0.10;;;;;;;30.90;42.76;99266.31;5091238;28;20024;-79
2021/07/08 08:47:06;;;;;;;0.13;0.13;;;;;;;30.87;42.02;99265.16;5090958;28;20123;-79
2021/07/08 08:49:31;;;;;;;0.40;0.40;;;;;;;30.76;41.68;99272.75;5074185;28;20129;-79
2021/07/08 08:51:57;;;;;;;0.75;0.75;;;;;;;30.68;42.95;99277.56;5074390;28;20518;-81
2021/07/08 08:54:22;;;;;;;0.10;0.10;;;;;;;30.73;42.37;99268.06;5090923;28;20055;-80
2021/07/08 08:56:48;;;;;;;0.32;0.32;;;;;;;30.83;41.13;99269.91;5074264;28;20047;-80
2021/07/08 08:59:13;;;;;;;0.38;0.38;;;;;;;30.76;40.22;99276.31;5073768;28;20032;-81
2021/07/08 09:01:39;;;;;;;0.10;0.10;;;;;;;30.69;40.68;99272.81;5073937;28;20066;-80
2021/07/08 09:04:04;;;;;;;0.15;0.15;;;;;;;30.63;41.37;99280.75;5092119;28;20141;-80
2021/07/08 09:06:37;;;;;;;0.35;0.35;;;;;;;30.63;41.08;99278.00;5074075;28;20024;-80
2021/07/08 09:09:09;;;;;;;0.17;0.17;;;;;;;30.61;40.70;99278.38;5073569;28;20445;-80
2021/07/08 09:11:36;;;;;;;0.20;0.20;;;;;;;30.54;40.86;99272.16;5073951;28;20028;-80
2021/07/08 09:14:06;;;;;;;2.35;1.65;;;;;;;30.56;41.58;99272.53;5073267;28;20081;-80
2021/07/08 09:16:40;;;;;;;0.10;0.10;;;;;;;30.61;40.77;99283.91;5073658;28;20502;-79
2021/07/08 09:19:09;;;;;;;0.40;0.28;;;;;;;30.55;40.49;99282.00;5090658;28;20093;-80
2021/07/08 09:21:41;;;;;;;0.70;0.70;;;;;;;30.53;40.85;99268.63;5090489;28;20024;-80
2021/07/08 09:24:14;;;;;;;0.30;0.30;;;;;;;30.63;41.71;99270.50;5090342;28;20024;-81
2021/07/08 09:27:05;;;;;;;0.45;0.45;;;;;;;30.66;41.33;99272.44;5073365;28;20048;-80
2021/07/08 09:29:33;;;;;;;0.63;0.63;;;;;;;30.64;40.89;99266.53;5073454;28;20058;-80
2021/07/08 09:32:00;;;;;;;0.55;0.55;;;;;;;30.63;41.49;99264.19;5090370;28;20024;-80
2021/07/08 09:34:32;;;;;;;0.15;0.15;;;;;;;30.59;41.62;99261.47;5091273;28;20615;-80
2021/07/08 09:37:04;;;;;;;0.00;0.00;;;;;;;30.52;41.72;99258.75;5090200;28;20410;-79
2021/07/08 09:39:37;;;;;;;0.10;0.10;;;;;;;30.48;42.08;99272.56;5090197;28;20062;-79
2021/07/08 09:42:03;;;;;;;0.17;0.17;;;;;;;30.50;42.40;99264.69;5089914;28;20475;-79
2021/07/08 09:44:29;;;;;;;0.00;0.00;;;;;;;30.60;42.11;99274.06;5073023;28;20034;-80
2021/07/08 09:46:56;;;;;;;0.22;0.22;;;;;;;30.66;42.06;99260.59;5090139;28;20028;-79
2021/07/08 09:49:23;;;;;;;0.00;0.00;;;;;;;30.71;39.87;99271.19;5089598;28;20031;-79
2021/07/08 09:51:50;;;;;;;0.20;0.20;;;;;;;30.71;39.92;99262.16;5090145;28;20028;-80
2021/07/08 09:54:43;;;;;;;0.10;0.10;;;;;;;30.71;40.50;99262.91;5089850;28;20067;-81
2021/07/08 09:57:09;;;;;;;0.17;0.15;;;;;;;30.75;40.30;99249.09;5073119;28;20077;-81
2021/07/08 09:59:36;;;;;;;1.40;1.08;;;;;;;30.76;39.06;99253.41;5089999;28;20429;-80
2021/07/08 10:02:02;;;;;;;0.20;0.20;;;;;;;30.81;39.31;99253.78;5073243;28;20048;-80
2021/07/08 10:04:28;;;;;;;0.05;0.05;;;;;;;30.87;40.08;99250.56;5072846;28;20081;-80
2021/07/08 10:06:54;;;;;;;1.25;0.60;;;;;;;30.95;39.53;99252.06;5073131;28;20028;-80
2021/07/08 10:09:21;;;;;;;0.73;0.73;;;;;;;30.89;39.63;99257.25;5089796;28;20083;-80
2021/07/08 10:11:50;;;;;;;0.13;0.13;;;;;;;30.84;39.79;99262.44;5073150;28;20101;-80
2021/07/08 10:14:19;;;;;;;0.40;0.40;;;;;;;30.75;39.88;99257.38;5089667;28;20599;-81
2021/07/08 10:16:50;;;;;;;0.13;0.13;;;;;;;30.65;40.43;99272.84;5073093;28;20042;-79
2021/07/08 10:19:19;;;;;;;0.25;0.25;;;;;;;30.54;40.09;99272.16;5089574;28;20407;-80
2021/07/08 10:21:47;;;;;;;0.15;0.15;;;;;;;30.39;40.63;99269.47;5072877;28;20089;-80
2021/07/08 10:24:14;;;;;;;1.48;1.00;;;;;;;30.31;41.06;99270.69;5072780;28;20025;-81
2021/07/08 10:26:40;;;;;;;0.50;0.50;;;;;;;30.30;40.70;99258.13;5090683;28;20043;-80
2021/07/08 10:29:08;;;;;;;0.35;0.20;;;;;;;30.37;40.77;99246.22;5089583;28;20039;-81
2021/07/08 10:31:35;;;;;;;0.22;0.22;;;;;;;30.43;41.10;99252.88;5072968;28;20118;-80
2021/07/08 10:34:17;;;;;;;0.00;0.00;;;;;;;30.40;40.09;99248.19;5089848;28;20023;-80
2021/07/08 10:36:46;;;;;;;0.40;0.40;;;;;;;30.45;40.38;99242.22;5089711;28;20031;-80
2021/07/08 10:39:15;;;;;;;0.73;0.40;;;;;;;30.54;40.11;99236.28;5089286;28;20503;-81
2021/07/08 10:41:44;;;;;;;0.17;0.17;;;;;;;30.59;39.03;99244.09;5089591;28;20036;-80
2021/07/08 10:44:47;;;;;;;0.25;0.25;;;;;;;30.66;39.05;99221.97;5089384;28;20131;-81
2021/07/08 10:47:33;;;;;;;1.65;0.65;;;;;;;30.61;38.54;99214.91;5075306;28;20031;-81
2021/07/08 10:49:59;;;;;;;0.30;0.30;;;;;;;30.67;39.63;99209.72;5060356;28;20127;-80
2021/07/08 10:52:45;;;;;;;0.40;0.40;;;;;;;30.73;36.87;99229.41;5077285;28;20489;-80
2021/07/08 10:55:32;;;;;;;0.40;0.40;;;;;;;30.74;36.52;99223.47;5094477;28;20028;-80
2021/07/08 10:57:58;;;;;;;0.30;0.30;;;;;;;30.72;37.58;99216.78;5067405;28;20029;-79
2021/07/08 11:00:47;;;;;;;0.73;0.73;;;;;;;30.80;37.72;99219.06;5105778;28;20265;-79
2021/07/08 11:03:39;;;;;;;0.65;0.65;;;;;;;30.91;36.53;99232.78;5095640;28;20020;-80
2021/07/08 11:06:17;;;;;;;0.40;0.40;;;;;;;30.94;36.49;99233.94;5093829;28;20027;-78
2021/07/08 11:08:46;;;;;;;0.22;0.22;;;;;;;30.92;37.32;99215.00;5091630;28;20161;-79
2021/07/08 11:11:23;;;;;;;0.10;0.10;;;;;;;30.91;36.88;99210.69;5091673;28;20028;-79
2021/07/08 11:13:51;;;;;;;0.20;0.20;;;;;;;30.93;37.05;99213.81;5092455;28;20181;-79
2021/07/08 11:16:43;;;;;;;0.57;0.52;;;;;;;30.98;37.65;99216.13;5074646;28;20036;-77
2021/07/08 11:19:11;;;;;;;0.73;0.73;;;;;;;30.86;37.04;99222.19;5082593;28;20024;-76
2021/07/08 11:21:49;;;;;;;0.70;0.70;;;;;;;30.88;37.30;99225.28;5075441;28;20032;-76
2021/07/08 11:24:16;;;;;;;0.73;0.63;;;;;;;30.90;37.36;99211.09;5093532;28;20020;-76
2021/07/08 11:26:55;;;;;;;0.10;0.10;;;;;;;30.94;37.23;99217.34;5071456;28;20144;-76
2021/07/08 11:29:54;;;;;;;0.68;0.68;;;;;;;30.85;36.36;99195.75;5072912;28;20128;-76
2021/07/08 11:32:45;;;;;;;0.35;0.35;;;;;;;30.79;36.62;99200.94;5072945;28;20032;-76
2021/07/08 11:35:19;;;;;;;0.68;0.15;;;;;;;30.91;36.79;99215.44;5065533;28;20115;-75
2021/07/08 11:37:55;;;;;;;17.30;2.28;;;;;;;30.89;35.28;99210.31;5071544;28;20047;-75
2021/07/08 11:40:22;;;;;;;0.22;0.22;;;;;;;30.95;36.12;99192.09;5071570;28;20035;-76
2021/07/08 11:42:49;;;;;;;1.30;0.20;;;;;;;31.00;36.37;99193.63;5073124;28;20029;-75